Time;durP1;ratioP1;P1;durP2;ratioP2;P2;SDS_P1;SDS_P2;PMS_P1;PMS_P2;Temp;Humidity;BMP_temperature;BMP_pressure;BME280_temperature;BME280_humidity;BME280_pressure;Samples;Min_cycle;Max_cycle;Signal;HPM_P1;HPM_P2
2021/10/25 00:00:43;;;;;;;8.20;5.77;;;6.80;99.90;;;;;;5018450;28;20232;-72
2021/10/25 00:03:09;;;;;;;7.60;5.90;;;6.80;99.90;;;;;;5009517;28;20671;-72
2021/10/25 00:05:38;;;;;;;12.70;5.53;;;6.80;99.90;;;;;;4995268;28;20224;-72
2021/10/25 00:08:04;;;;;;;8.37;5.87;;;6.80;99.90;;;;;;5014830;28;20845;-72
2021/10/25 00:10:32;;;;;;;8.53;5.10;;;6.70;99.90;;;;;;5008343;28;21038;-71
2021/10/25 00:12:59;;;;;;;8.00;5.93;;;6.60;99.90;;;;;;5005018;28;20459;-71
2021/10/25 00:15:25;;;;;;;9.30;5.10;;;6.60;99.90;;;;;;4993209;28;20710;-71
2021/10/25 00:17:51;;;;;;;9.23;5.90;;;6.60;99.90;;;;;;5000673;28;20514;-71
2021/10/25 00:20:16;;;;;;;7.00;5.13;;;6.60;99.90;;;;;;5023523;28;20318;-72
2021/10/25 00:22:42;;;;;;;6.57;4.67;;;6.60;99.90;;;;;;5012624;28;20228;-71
2021/10/25 00:25:08;;;;;;;9.40;5.60;;;6.60;99.90;;;;;;5030783;28;20251;-71
2021/10/25 00:27:34;;;;;;;7.63;5.70;;;6.60;99.90;;;;;;5021415;28;20217;-70
2021/10/25 00:30:00;;;;;;;8.60;5.70;;;6.50;99.90;;;;;;5002032;28;20933;-71
2021/10/25 00:32:26;;;;;;;12.93;6.17;;;6.50;99.90;;;;;;4994378;28;20284;-72
2021/10/25 00:34:51;;;;;;;8.00;5.50;;;6.50;99.90;;;;;;4993098;28;20589;-71
2021/10/25 00:37:17;;;;;;;8.43;6.80;;;6.50;99.90;;;;;;5014618;28;20220;-71
2021/10/25 00:39:43;;;;;;;10.43;5.60;;;6.50;99.90;;;;;;5008860;28;20235;-71
2021/10/25 00:42:09;;;;;;;8.03;5.63;;;6.40;99.90;;;;;;5010527;28;20213;-73
2021/10/25 00:44:34;;;;;;;8.63;5.33;;;6.40;99.90;;;;;;5015251;28;20454;-73
2021/10/25 00:47:00;;;;;;;8.03;5.80;;;6.40;99.90;;;;;;5012885;28;20638;-72
2021/10/25 00:49:26;;;;;;;8.67;5.73;;;6.30;99.90;;;;;;5007180;28;20227;-72
2021/10/25 00:51:54;;;;;;;6.13;5.10;;;6.30;99.90;;;;;;5011197;28;20212;-71
2021/10/25 00:54:20;;;;;;;6.20;5.20;;;6.30;99.90;;;;;;5002847;28;20616;-71
2021/10/25 00:56:47;;;;;;;8.57;5.47;;;6.30;99.90;;;;;;5004021;28;21218;-69
2021/10/25 00:59:14;;;;;;;6.73;4.93;;;6.20;99.90;;;;;;5013597;28;20475;-71
2021/10/25 01:01:40;;;;;;;6.37;5.33;;;6.20;99.90;;;;;;5012246;28;20490;-71
2021/10/25 01:04:09;;;;;;;7.13;5.33;;;6.20;99.90;;;;;;5024324;28;20469;-71
2021/10/25 01:06:36;;;;;;;7.20;5.90;;;6.20;99.90;;;;;;5008567;28;20470;-72
2021/10/25 01:09:02;;;;;;;5.87;4.60;;;6.20;99.90;;;;;;5010354;28;20486;-71
2021/10/25 01:11:28;;;;;;;6.50;4.83;;;6.20;99.90;;;;;;5004570;28;20455;-71
2021/10/25 01:13:54;;;;;;;7.60;5.60;;;6.20;99.90;;;;;;5016361;28;20284;-73
2021/10/25 01:16:21;;;;;;;5.60;4.73;;;6.20;99.90;;;;;;4997666;28;20220;-71
2021/10/25 01:18:48;;;;;;;8.47;5.67;;;6.20;99.90;;;;;;5006466;28;20463;-72
2021/10/25 01:21:14;;;;;;;7.70;4.87;;;6.10;99.90;;;;;;4997750;28;20223;-72
2021/10/25 01:23:40;;;;;;;7.40;5.83;;;6.10;99.90;;;;;;5025041;28;20865;-68
2021/10/25 01:26:07;;;;;;;7.80;5.50;;;6.20;99.90;;;;;;5028796;28;20345;-71
2021/10/25 01:28:34;;;;;;;6.37;4.80;;;6.10;99.90;;;;;;5032059;28;20454;-71
2021/10/25 01:31:01;;;;;;;5.77;5.00;;;6.00;99.90;;;;;;5017445;28;20837;-71
2021/10/25 01:33:29;;;;;;;5.37;4.33;;;6.00;99.90;;;;;;5016961;28;20454;-71
2021/10/25 01:35:55;;;;;;;12.43;4.67;;;5.90;99.90;;;;;;5027492;28;20211;-71
2021/10/25 01:38:21;;;;;;;7.60;5.07;;;5.90;99.90;;;;;;4999400;28;20885;-71
2021/10/25 01:40:49;;;;;;;8.03;5.77;;;5.90;99.90;;;;;;5028544;28;20232;-72
2021/10/25 01:43:15;;;;;;;6.27;4.70;;;5.90;99.90;;;;;;5013475;28;20843;-72
2021/10/25 01:45:45;;;;;;;4.97;4.47;;;5.90;99.90;;;;;;5011738;28;20216;-70
2021/10/25 01:48:11;;;;;;;7.77;5.50;;;5.90;99.90;;;;;;5007176;28;20466;-72
2021/10/25 01:50:37;;;;;;;9.03;5.20;;;6.00;99.90;;;;;;5003910;28;20538;-71
2021/10/25 01:53:04;;;;;;;7.23;4.67;;;6.00;99.90;;;;;;5005854;28;20570;-72
2021/10/25 01:55:32;;;;;;;5.23;4.60;;;6.00;99.90;;;;;;5022529;28;20482;-72
2021/10/25 01:57:58;;;;;;;7.47;5.30;;;6.00;99.90;;;;;;5005857;28;20463;-71
2021/10/25 02:00:25;;;;;;;6.13;5.10;;;6.00;99.90;;;;;;5013490;28;20498;-71
2021/10/25 02:02:51;;;;;;;6.80;4.80;;;6.00;99.90;;;;;;5002986;28;20970;-71
2021/10/25 02:05:40;;;;;;;4.63;4.17;;;5.90;99.90;;;;;;5027442;28;20458;-71
2021/10/25 02:08:07;;;;;;;5.30;4.30;;;5.90;99.90;;;;;;5008228;28;20471;-70
2021/10/25 02:10:45;;;;;;;8.67;4.93;;;5.90;99.90;;;;;;5016606;28;20462;-71
2021/10/25 02:13:15;;;;;;;7.00;5.20;;;5.90;99.90;;;;;;5006327;28;20508;-71
2021/10/25 02:15:42;;;;;;;5.97;4.47;;;5.80;99.90;;;;;;5009801;28;20311;-71
2021/10/25 02:18:08;;;;;;;6.37;5.00;;;5.80;99.90;;;;;;5011845;28;20550;-72
2021/10/25 02:20:34;;;;;;;7.40;4.70;;;5.80;99.90;;;;;;5013702;28;20569;-70
2021/10/25 02:23:00;;;;;;;5.10;4.60;;;5.80;99.90;;;;;;5012889;28;20220;-71
2021/10/25 02:25:28;;;;;;;6.07;3.97;;;5.80;99.90;;;;;;4999141;28;20220;-72
2021/10/25 02:27:53;;;;;;;5.40;4.10;;;5.80;99.90;;;;;;5026704;28;21011;-71
2021/10/25 02:30:20;;;;;;;5.93;4.57;;;5.80;99.90;;;;;;5029482;28;20224;-71
2021/10/25 02:32:47;;;;;;;4.90;3.90;;;5.70;99.90;;;;;;5027156;28;20251;-70
2021/10/25 02:35:13;;;;;;;5.40;4.20;;;5.70;99.90;;;;;;5012707;28;20455;-71
2021/10/25 02:37:43;;;;;;;7.03;5.27;;;5.70;99.90;;;;;;5011542;28;20248;-72
2021/10/25 02:40:09;;;;;;;8.33;4.83;;;5.70;99.90;;;;;;5012730;28;20992;-72
2021/10/25 02:42:35;;;;;;;6.23;4.50;;;5.60;99.90;;;;;;5006662;28;20220;-71
2021/10/25 02:45:01;;;;;;;9.30;5.73;;;5.70;99.90;;;;;;5019816;28;20530;-72
2021/10/25 02:47:27;;;;;;;7.80;4.70;;;5.60;99.90;;;;;;5019386;28;20974;-72
2021/10/25 02:49:53;;;;;;;7.30;4.90;;;5.60;99.90;;;;;;5002762;28;20225;-71
2021/10/25 02:52:22;;;;;;;6.20;4.50;;;5.60;99.90;;;;;;4999577;28;20460;-72
2021/10/25 02:54:49;;;;;;;4.60;3.60;;;5.60;99.90;;;;;;4991408;28;20543;-72
2021/10/25 02:57:16;;;;;;;5.50;3.80;;;5.60;99.90;;;;;;5025383;28;20539;-71
2021/10/25 02:59:42;;;;;;;6.43;5.60;;;5.60;99.90;;;;;;5043039;28;20223;-72
2021/10/25 03:02:09;;;;;;;7.73;4.63;;;5.60;99.90;;;;;;5048352;28;20469;-70
2021/10/25 03:04:35;;;;;;;6.53;4.70;;;5.50;99.90;;;;;;5037871;28;20465;-71
2021/10/25 03:07:01;;;;;;;4.97;4.43;;;5.50;99.90;;;;;;5018961;28;20499;-73
2021/10/25 03:09:27;;;;;;;5.53;4.80;;;5.50;99.90;;;;;;5028404;28;20556;-73
2021/10/25 03:11:53;;;;;;;7.30;5.03;;;5.50;99.90;;;;;;5026154;28;20490;-71
2021/10/25 03:14:19;;;;;;;6.33;4.87;;;5.40;99.90;;;;;;5015872;28;20213;-71
2021/10/25 03:16:52;;;;;;;9.83;5.77;;;5.50;99.90;;;;;;5044292;28;20518;-71
2021/10/25 03:19:18;;;;;;;11.37;6.27;;;5.50;99.90;;;;;;5019993;28;21046;-71
2021/10/25 03:21:44;;;;;;;10.80;5.60;;;5.40;99.90;;;;;;5026643;28;20213;-70
2021/10/25 03:24:10;;;;;;;8.90;4.77;;;5.40;99.90;;;;;;4986350;28;20831;-71
2021/10/25 03:26:36;;;;;;;10.60;6.40;;;5.40;99.90;;;;;;5007875;28;20463;-73
2021/10/25 03:29:02;;;;;;;8.27;5.00;;;5.40;99.90;;;;;;5027698;28;20216;-72
2021/10/25 03:31:28;;;;;;;7.40;5.60;;;5.30;99.90;;;;;;4994933;28;20298;-72
2021/10/25 03:33:53;;;;;;;9.63;6.07;;;5.30;99.90;;;;;;5011183;28;20554;-73
2021/10/25 03:36:27;;;;;;;7.90;5.50;;;5.30;99.90;;;;;;5022031;28;20213;-71
2021/10/25 03:38:53;;;;;;;9.20;6.60;;;5.20;99.90;;;;;;4989745;28;20543;-72
2021/10/25 03:41:34;;;;;;;11.93;5.77;;;5.30;99.90;;;;;;4998834;28;20517;-72
2021/10/25 03:44:39;;;;;;;11.87;6.60;;;5.30;99.90;;;;;;4995515;28;20514;-71
2021/10/25 03:47:03;;;;;;;12.30;6.40;;;5.30;99.90;;;;;;5025616;28;20533;-72
2021/10/25 03:49:38;;;;;;;12.03;6.03;;;5.30;99.90;;;;;;5012146;28;20450;-71
2021/10/25 03:52:30;;;;;;;8.10;5.50;;;5.20;99.90;;;;;;5034200;28;20471;-71
2021/10/25 04:28:23;;;;;;;9.03;5.27;;;5.00;99.90;;;;;;5040060;28;20462;-72
2021/10/25 04:30:57;;;;;;;8.20;6.00;;;5.00;99.90;;;;;;5029054;28;20442;-70
2021/10/25 04:33:27;;;;;;;11.57;6.10;;;4.90;99.90;;;;;;5011063;28;20452;-72
2021/10/25 04:36:02;;;;;;;15.27;8.20;;;4.90;99.90;;;;;;5021224;28;20480;-72
2021/10/25 04:38:50;;;;;;;14.53;9.00;;;4.90;99.90;;;;;;5043996;28;20448;-71
2021/10/25 04:41:16;;;;;;;12.67;8.57;;;4.90;99.90;;;;;;5019084;28;20454;-72
2021/10/25 04:43:44;;;;;;;10.80;8.57;;;4.90;99.90;;;;;;5007987;28;20213;-72
2021/10/25 04:46:10;;;;;;;9.57;7.67;;;4.90;99.90;;;;;;5004439;28;20216;-71
2021/10/25 04:48:36;;;;;;;13.00;7.90;;;4.90;99.90;;;;;;5008523;28;20468;-72
2021/10/25 04:51:15;;;;;;;10.20;6.70;;;4.90;99.90;;;;;;5014709;28;20450;-72
2021/10/25 04:53:48;;;;;;;9.57;6.87;;;4.90;99.90;;;;;;5012118;28;20488;-71
2021/10/25 04:56:21;;;;;;;15.60;9.10;;;4.90;99.90;;;;;;5019450;28;20538;-71
2021/10/25 04:58:47;;;;;;;13.80;7.50;;;4.90;99.90;;;;;;4996963;28;20565;-70
2021/10/25 05:01:12;;;;;;;14.40;8.27;;;4.90;99.90;;;;;;5013239;28;20262;-71
2021/10/25 05:03:38;;;;;;;11.53;7.77;;;4.90;99.90;;;;;;5012481;28;20220;-71
2021/10/25 05:06:04;;;;;;;12.37;7.67;;;4.90;99.90;;;;;;5018843;28;20454;-71
2021/10/25 05:08:31;;;;;;;11.53;6.33;;;4.90;99.90;;;;;;5017630;28;20458;-70
2021/10/25 05:10:56;;;;;;;16.47;8.20;;;4.90;99.90;;;;;;5005495;28;20300;-71
2021/10/25 05:13:22;;;;;;;13.33;7.40;;;4.90;99.90;;;;;;5012937;28;20517;-72
2021/10/25 05:15:48;;;;;;;13.30;7.17;;;4.90;99.90;;;;;;5027164;28;20879;-72
2021/10/25 05:18:13;;;;;;;15.60;7.80;;;4.90;99.90;;;;;;5012852;28;20226;-71
2021/10/25 05:20:40;;;;;;;15.07;7.80;;;4.90;99.90;;;;;;5010982;28;20239;-71
2021/10/25 05:23:08;;;;;;;14.27;7.27;;;4.90;99.90;;;;;;5001415;28;20220;-73
2021/10/25 05:25:34;;;;;;;15.20;7.80;;;4.90;99.90;;;;;;5014482;28;20451;-71
2021/10/25 05:28:00;;;;;;;10.70;6.90;;;4.90;99.90;;;;;;5012523;28;20482;-71
2021/10/25 05:30:26;;;;;;;12.67;7.17;;;4.90;99.90;;;;;;5027096;28;20477;-72
2021/10/25 05:32:52;;;;;;;8.70;5.47;;;4.80;99.90;;;;;;5007629;28;20216;-71
2021/10/25 05:35:19;;;;;;;8.13;5.20;;;4.80;99.90;;;;;;5025843;28;20217;-71
2021/10/25 05:37:45;;;;;;;9.23;5.57;;;4.80;99.90;;;;;;5023185;28;20478;-70
2021/10/25 05:40:11;;;;;;;8.30;5.10;;;4.80;99.90;;;;;;5006863;28;20232;-72
2021/10/25 05:42:58;;;;;;;9.67;5.30;;;4.90;99.90;;;;;;5026256;28;20221;-71
2021/10/25 05:45:25;;;;;;;7.60;4.87;;;4.90;99.90;;;;;;5006384;28;20446;-70
2021/10/25 05:47:51;;;;;;;9.30;5.37;;;4.90;99.90;;;;;;5018644;28;20455;-70
2021/10/25 05:50:17;;;;;;;6.70;4.27;;;4.80;99.90;;;;;;5012282;28;20461;-71
2021/10/25 05:52:42;;;;;;;7.67;4.83;;;4.80;99.90;;;;;;4995828;28;20282;-71
2021/10/25 05:55:09;;;;;;;9.20;4.67;;;4.80;99.90;;;;;;5004409;28;20228;-70
2021/10/25 05:57:35;;;;;;;8.23;5.00;;;4.90;99.90;;;;;;5011653;28;20354;-70
2021/10/25 06:00:03;;;;;;;7.90;4.30;;;4.80;99.90;;;;;;4996561;28;20538;-70
2021/10/25 06:02:37;;;;;;;4.57;3.53;;;4.80;99.90;;;;;;5021553;28;20223;-71
2021/10/25 06:05:09;;;;;;;8.10;4.17;;;4.80;99.90;;;;;;5032614;28;20458;-70
2021/10/25 06:07:47;;;;;;;7.87;4.10;;;4.90;99.90;;;;;;5007529;28;20466;-70
2021/10/25 06:10:14;;;;;;;9.27;4.03;;;4.90;99.90;;;;;;5018564;28;20459;-70
2021/10/25 06:12:49;;;;;;;11.07;4.63;;;4.90;99.90;;;;;;5019411;28;20462;-73
2021/10/25 06:15:23;;;;;;;5.57;4.87;;;4.90;99.90;;;;;;5012958;28;20489;-70
2021/10/25 06:17:56;;;;;;;12.10;6.37;;;4.90;99.90;;;;;;4994968;28;20455;-70
2021/10/25 06:20:28;;;;;;;10.33;6.33;;;4.90;99.90;;;;;;5009040;28;20470;-71
2021/10/25 06:22:55;;;;;;;9.20;6.30;;;4.90;99.90;;;;;;5015622;28;20461;-71
2021/10/25 06:25:23;;;;;;;8.90;5.67;;;4.90;99.90;;;;;;5016408;28;20460;-71
2021/10/25 06:28:01;;;;;;;9.40;6.53;;;4.90;99.90;;;;;;5014288;28;20826;-71
2021/10/25 06:30:27;;;;;;;10.70;6.50;;;4.90;99.90;;;;;;5004361;28;20458;-71
2021/10/25 06:32:55;;;;;;;7.97;5.70;;;4.80;99.90;;;;;;4999925;28;20281;-70
2021/10/25 06:35:38;;;;;;;8.90;5.87;;;4.80;99.90;;;;;;5020875;28;20972;-70
2021/10/25 06:38:25;;;;;;;7.70;5.90;;;4.80;99.90;;;;;;5029102;28;20466;-71
2021/10/25 06:40:51;;;;;;;9.27;5.10;;;4.80;99.90;;;;;;5014167;28;20465;-71
2021/10/25 06:43:17;;;;;;;10.40;5.70;;;4.80;99.90;;;;;;5011372;28;20467;-70
2021/10/25 06:45:48;;;;;;;10.70;7.10;;;4.80;99.90;;;;;;5016098;28;20696;-71
2021/10/25 06:48:17;;;;;;;10.13;6.40;;;4.80;99.90;;;;;;5012441;28;20467;-70
2021/10/25 06:50:43;;;;;;;10.17;7.50;;;4.80;99.90;;;;;;5010730;28;20466;-70
2021/10/25 06:53:09;;;;;;;8.17;5.80;;;4.80;99.90;;;;;;5015802;28;20219;-71
2021/10/25 06:55:53;;;;;;;11.23;7.63;;;4.80;99.90;;;;;;5028116;28;21232;-70
2021/10/25 06:58:21;;;;;;;13.73;8.60;;;4.80;99.90;;;;;;5011420;28;20467;-71
2021/10/25 07:00:50;;;;;;;10.20;7.55;;;4.80;99.90;;;;;;4993870;28;20433;-70
2021/10/25 07:03:16;;;;;;;13.17;8.40;;;4.90;99.90;;;;;;5014877;28;20243;-71
2021/10/25 07:05:43;;;;;;;16.17;8.93;;;4.90;99.90;;;;;;4997804;28;20466;-69
2021/10/25 07:08:14;;;;;;;9.50;7.57;;;4.90;99.90;;;;;;5027699;28;20476;-71
2021/10/25 07:10:41;;;;;;;11.43;7.30;;;4.90;99.90;;;;;;5011204;28;20459;-69
2021/10/25 07:13:07;;;;;;;12.20;8.17;;;4.90;99.90;;;;;;5006900;28;20462;-71
2021/10/25 07:15:36;;;;;;;13.17;8.27;;;4.90;99.90;;;;;;4988372;28;20228;-70
2021/10/25 07:18:27;;;;;;;12.70;6.67;;;4.90;99.90;;;;;;4979310;28;20522;-69
2021/10/25 08:00:22;;;;;;;7.90;5.37;;;5.00;99.90;;;;;;4995155;28;20463;-70
2021/10/25 08:11:09;;;;;;;7.23;4.80;;;5.20;99.90;;;;;;4995619;28;20444;-71
2021/10/25 08:13:44;;;;;;;9.27;4.90;;;5.20;99.90;;;;;;5022235;28;20842;-70
2021/10/25 08:21:14;;;;;;;10.40;5.33;;;5.20;99.90;;;;;;5007230;28;20555;-71
2021/10/25 08:23:40;;;;;;;6.90;5.47;;;5.20;99.90;;;;;;5013296;28;20981;-70
2021/10/25 08:26:26;;;;;;;7.67;5.63;;;5.30;99.90;;;;;;5007209;28;20458;-70
2021/10/25 08:28:55;;;;;;;8.20;5.53;;;5.30;99.90;;;;;;4987529;28;20483;-70
2021/10/25 08:31:22;;;;;;;9.63;4.93;;;5.30;99.90;;;;;;5006441;28;20488;-70
2021/10/25 08:42:36;;;;;;;5.23;4.10;;;5.40;99.90;;;;;;4959672;28;20539;-70
2021/10/25 08:45:15;;;;;;;4.90;4.20;;;5.40;99.90;;;;;;5029429;28;20550;-69
2021/10/25 08:47:47;;;;;;;7.57;5.27;;;5.40;99.90;;;;;;5011756;28;20457;-71
2021/10/25 08:50:20;;;;;;;8.43;5.17;;;5.40;99.90;;;;;;5029145;28;20549;-71
2021/10/25 08:52:46;;;;;;;9.97;5.27;;;5.40;99.90;;;;;;5004313;28;20461;-70
2021/10/25 08:55:16;;;;;;;10.17;5.40;;;5.40;99.90;;;;;;5014137;28;20458;-70
2021/10/25 08:57:43;;;;;;;8.80;4.97;;;5.50;99.90;;;;;;5024362;28;20454;-69
2021/10/25 09:00:17;;;;;;;8.97;5.57;;;5.50;99.90;;;;;;5021718;28;20474;-70
2021/10/25 09:03:12;;;;;;;8.80;5.20;;;5.50;99.90;;;;;;5037598;28;20468;-71
2021/10/25 09:05:50;;;;;;;10.80;5.97;;;5.50;99.90;;;;;;5024065;28;20466;-70
2021/10/25 09:08:16;;;;;;;11.00;6.67;;;5.50;99.90;;;;;;5045253;28;20462;-73
2021/10/25 09:10:45;;;;;;;10.40;7.50;;;5.60;99.90;;;;;;5021969;28;20457;-70
2021/10/25 09:13:17;;;;;;;12.83;7.50;;;5.60;99.90;;;;;;5048949;28;20847;-71
2021/10/25 09:15:54;;;;;;;11.17;7.00;;;5.60;99.90;;;;;;5007265;28;20459;-70
2021/10/25 09:18:55;;;;;;;15.30;7.40;;;5.60;99.90;;;;;;4941388;28;20466;-69
2021/10/25 09:21:33;;;;;;;16.40;9.20;;;5.60;99.90;;;;;;5008150;28;20455;-70
2021/10/25 09:24:00;;;;;;;16.83;9.00;;;5.60;99.90;;;;;;5003161;28;20458;-71
2021/10/25 09:26:29;;;;;;;29.97;17.30;;;5.60;99.90;;;;;;5022437;28;20478;-69
2021/10/25 09:29:04;;;;;;;34.40;22.37;;;5.60;99.90;;;;;;4998082;28;20451;-68
2021/10/25 09:31:35;;;;;;;21.80;12.83;;;5.60;99.90;;;;;;5003314;28;20455;-70
2021/10/25 09:34:06;;;;;;;20.87;10.13;;;5.60;99.90;;;;;;5000262;28;20474;-71
2021/10/25 09:37:13;;;;;;;15.33;9.47;;;5.70;99.90;;;;;;4931495;29;20474;-70
2021/10/25 09:39:50;;;;;;;15.87;8.57;;;5.70;99.90;;;;;;5015381;28;20470;-70
2021/10/25 09:42:47;;;;;;;16.90;9.30;;;5.70;99.90;;;;;;5013179;28;20960;-70
2021/10/25 09:50:49;;;;;;;13.53;7.97;;;5.80;99.90;;;;;;5021576;28;20447;-71
2021/10/25 09:53:37;;;;;;;14.30;8.90;;;5.80;99.90;;;;;;5033479;28;20457;-72
2021/10/25 09:56:07;;;;;;;10.80;7.13;;;5.80;99.90;;;;;;4996891;28;20447;-71
2021/10/25 10:01:36;;;;;;;9.93;7.00;;;5.80;99.90;;;;;;5019848;28;20462;-71
2021/10/25 10:04:04;;;;;;;10.13;6.13;;;5.90;99.90;;;;;;5012383;28;20457;-71
2021/10/25 10:06:52;;;;;;;10.67;6.67;;;5.90;99.90;;;;;;5003567;28;20454;-70
2021/10/25 10:09:18;;;;;;;10.27;5.80;;;5.90;99.90;;;;;;5032251;28;20461;-70
2021/10/25 10:11:45;;;;;;;7.90;5.77;;;5.90;99.90;;;;;;5035066;28;20819;-69
2021/10/25 10:14:13;;;;;;;12.03;7.10;;;6.00;99.90;;;;;;5027406;28;20298;-71
2021/10/25 10:16:46;;;;;;;8.50;5.93;;;6.00;99.90;;;;;;5023152;28;20537;-72
2021/10/25 10:19:14;;;;;;;9.93;7.27;;;6.00;99.90;;;;;;5044552;28;20458;-70
2021/10/25 10:21:58;;;;;;;9.93;6.73;;;6.00;99.90;;;;;;5067214;28;20900;-72
2021/10/25 10:24:31;;;;;;;7.87;5.87;;;6.00;99.90;;;;;;5020736;28;20996;-72
2021/10/25 10:27:00;;;;;;;11.00;6.13;;;6.10;99.90;;;;;;4998275;28;20456;-72
2021/10/25 10:29:37;;;;;;;8.93;5.73;;;6.10;99.90;;;;;;5009814;28;20465;-72
2021/10/25 10:32:16;;;;;;;7.70;5.40;;;6.10;99.90;;;;;;5002920;28;20460;-71
2021/10/25 10:35:07;;;;;;;10.93;5.60;;;6.10;99.90;;;;;;4999753;28;20534;-71
2021/10/25 10:38:02;;;;;;;10.90;6.20;;;6.10;99.90;;;;;;4993780;28;20499;-71
2021/10/25 10:40:40;;;;;;;10.53;6.43;;;6.20;99.90;;;;;;5017547;28;20515;-70
2021/10/25 10:43:24;;;;;;;12.60;6.67;;;6.20;99.90;;;;;;5012470;28;20546;-69
2021/10/25 10:46:04;;;;;;;8.00;5.80;;;6.20;99.90;;;;;;5017147;28;20463;-71
2021/10/25 10:48:34;;;;;;;11.20;5.40;;;6.20;99.90;;;;;;5028660;28;20474;-70
2021/10/25 10:51:04;;;;;;;13.43;6.20;;;6.30;99.90;;;;;;5021807;28;20471;-71
2021/10/25 10:53:37;;;;;;;13.43;6.47;;;6.30;99.90;;;;;;4999845;28;20459;-71
2021/10/25 10:56:27;;;;;;;11.83;5.90;;;6.30;99.90;;;;;;4996218;28;20807;-71
2021/10/25 10:59:07;;;;;;;10.87;6.40;;;6.30;99.90;;;;;;5038786;28;20450;-73
2021/10/25 11:01:33;;;;;;;10.47;5.30;;;6.40;99.90;;;;;;5025756;28;20451;-71
2021/10/25 11:04:04;;;;;;;9.40;6.67;;;6.40;99.90;;;;;;5012857;28;20462;-71
2021/10/25 11:06:34;;;;;;;11.93;6.13;;;6.40;99.90;;;;;;5008472;28;20528;-71
2021/10/25 11:09:08;;;;;;;11.20;6.97;;;6.50;99.90;;;;;;5015205;28;20515;-71
2021/10/25 11:11:36;;;;;;;12.33;7.47;;;6.50;99.90;;;;;;5004659;28;20998;-71
2021/10/25 11:14:07;;;;;;;10.67;6.17;;;6.60;99.90;;;;;;5002638;28;20463;-71
2021/10/25 11:19:19;;;;;;;11.40;7.10;;;6.70;99.90;;;;;;5022504;28;20537;-71
2021/10/25 11:21:53;;;;;;;12.60;7.30;;;6.80;99.90;;;;;;5010639;28;20988;-71
2021/10/25 11:24:21;;;;;;;11.27;6.63;;;6.90;99.90;;;;;;5019780;28;20557;-72
2021/10/25 11:26:55;;;;;;;10.23;5.60;;;7.00;99.90;;;;;;5004505;28;20452;-71
2021/10/25 11:29:33;;;;;;;9.00;5.77;;;7.00;99.90;;;;;;5008445;28;20455;-70
2021/10/25 11:32:00;;;;;;;7.73;5.80;;;7.20;99.90;;;;;;5023760;28;20521;-70
2021/10/25 11:34:35;;;;;;;13.20;7.90;;;7.20;99.90;;;;;;5024859;28;20851;-71
2021/10/25 11:37:18;;;;;;;10.30;7.10;;;7.40;99.90;;;;;;5043168;28;20461;-71
2021/10/25 11:42:29;;;;;;;12.40;7.00;;;7.50;99.90;;;;;;5046276;28;20544;-71
2021/10/25 11:45:02;;;;;;;10.90;7.07;;;7.60;99.90;;;;;;5042857;28;20446;-71
2021/10/25 11:47:34;;;;;;;15.00;7.93;;;7.60;99.90;;;;;;5023116;28;20457;-72
2021/10/25 11:50:07;;;;;;;12.50;8.17;;;7.70;99.90;;;;;;5012057;28;20454;-71
2021/10/25 11:52:38;;;;;;;13.77;8.03;;;7.80;99.90;;;;;;5018043;28;20465;-71
2021/10/25 11:55:04;;;;;;;10.90;8.33;;;7.90;99.90;;;;;;5014350;28;20470;-71
2021/10/25 11:57:32;;;;;;;10.10;7.70;;;7.90;99.90;;;;;;5032439;28;20450;-72
2021/10/25 12:00:11;;;;;;;14.93;9.90;;;8.00;99.90;;;;;;5017306;28;20459;-72
2021/10/25 12:02:41;;;;;;;22.63;13.23;;;8.10;99.90;;;;;;5011431;28;20459;-72
2021/10/25 12:05:08;;;;;;;18.57;12.80;;;8.20;99.90;;;;;;5031125;28;20541;-71
2021/10/25 12:07:48;;;;;;;18.13;11.13;;;8.30;99.90;;;;;;5009418;28;20478;-71
2021/10/25 12:10:15;;;;;;;19.10;10.90;;;8.40;99.90;;;;;;5037719;28;20489;-72
2021/10/25 12:12:40;;;;;;;28.13;13.37;;;8.50;99.90;;;;;;5028688;28;20459;-69
2021/10/25 12:15:11;;;;;;;24.57;15.00;;;8.60;99.90;;;;;;4997854;28;20466;-71
2021/10/25 12:17:37;;;;;;;23.70;12.77;;;8.80;99.90;;;;;;4995681;28;20225;-71
2021/10/25 12:20:06;;;;;;;26.57;13.93;;;9.00;99.90;;;;;;5022560;28;20461;-71
2021/10/25 12:22:33;;;;;;;22.37;11.63;;;9.10;99.90;;;;;;5049065;28;20491;-72
2021/10/25 12:24:59;;;;;;;14.10;9.93;;;9.20;99.90;;;;;;5050752;28;20453;-71
2021/10/25 12:27:37;;;;;;;10.87;7.63;;;9.30;99.90;;;;;;5022011;28;20461;-71
2021/10/25 12:30:12;;;;;;;12.93;8.27;;;9.40;99.90;;;;;;5032529;28;20453;-70
2021/10/25 12:32:49;;;;;;;10.37;7.90;;;9.50;99.90;;;;;;5048830;28;20985;-71
2021/10/25 12:35:15;;;;;;;14.67;7.70;;;9.40;99.90;;;;;;5014874;28;20855;-71
2021/10/25 12:37:40;;;;;;;11.60;8.10;;;9.50;99.90;;;;;;5040775;28;20548;-72
2021/10/25 12:40:19;;;;;;;10.73;8.00;;;9.50;99.90;;;;;;5023809;28;20306;-71
2021/10/25 12:42:46;;;;;;;12.83;8.87;;;9.40;99.90;;;;;;5028440;28;20211;-71
2021/10/25 12:45:20;;;;;;;11.57;8.60;;;9.50;99.90;;;;;;5023990;28;20509;-72
2021/10/25 12:47:47;;;;;;;12.50;8.50;;;9.50;99.90;;;;;;5011252;28;20467;-71
2021/10/25 12:50:17;;;;;;;10.63;6.80;;;9.60;99.90;;;;;;5009263;28;20490;-71
2021/10/25 12:52:44;;;;;;;10.97;7.60;;;9.70;99.90;;;;;;5028245;28;20458;-70
2021/10/25 12:55:11;;;;;;;10.63;7.80;;;9.80;99.90;;;;;;5021770;28;20975;-71
2021/10/25 12:57:38;;;;;;;12.87;7.77;;;9.90;99.90;;;;;;5028247;28;20454;-71
2021/10/25 13:00:14;;;;;;;10.17;8.10;;;10.00;99.90;;;;;;5013271;28;20470;-71
2021/10/25 13:02:47;;;;;;;11.30;7.23;;;10.00;99.90;;;;;;5011863;28;20587;-72
2021/10/25 13:05:20;;;;;;;8.10;6.90;;;10.00;99.90;;;;;;5004091;28;20455;-71
2021/10/25 13:07:56;;;;;;;12.33;7.70;;;10.00;99.90;;;;;;5024437;28;20454;-71
2021/10/25 13:10:28;;;;;;;11.17;7.20;;;10.00;99.90;;;;;;5027974;28;20470;-71
2021/10/25 13:12:56;;;;;;;9.50;6.53;;;10.00;99.90;;;;;;5030730;28;20839;-72
2021/10/25 13:15:25;;;;;;;9.97;7.47;;;10.10;99.90;;;;;;5004962;28;20474;-71
2021/10/25 13:17:55;;;;;;;8.30;7.37;;;10.20;99.90;;;;;;5015951;28;20454;-70
2021/10/25 13:20:23;;;;;;;9.60;7.20;;;10.30;99.90;;;;;;5017660;28;20476;-71
2021/10/25 13:22:51;;;;;;;13.10;8.27;;;10.40;99.90;;;;;;5015690;28;20465;-70
2021/10/25 13:25:19;;;;;;;12.00;7.97;;;10.60;99.90;;;;;;5008856;28;20462;-73
2021/10/25 13:27:45;;;;;;;11.43;8.43;;;10.70;99.90;;;;;;5004006;28;20454;-72
2021/10/25 13:30:13;;;;;;;9.83;7.70;;;10.70;99.90;;;;;;5030793;28;20458;-72
2021/10/25 13:32:39;;;;;;;9.10;6.60;;;10.70;99.90;;;;;;4975488;28;20464;-72
2021/10/25 13:35:08;;;;;;;10.53;6.67;;;10.80;99.90;;;;;;5009570;28;20460;-72
2021/10/25 13:37:34;;;;;;;10.67;7.20;;;10.90;99.90;;;;;;5025019;28;20224;-70
2021/10/25 13:40:05;;;;;;;9.27;7.17;;;11.10;99.90;;;;;;5033242;28;20527;-71
2021/10/25 13:42:31;;;;;;;12.40;7.17;;;11.20;99.90;;;;;;5017756;28;20229;-72
2021/10/25 13:44:56;;;;;;;9.40;7.00;;;11.20;99.90;;;;;;5014807;28;20890;-70
2021/10/25 13:47:22;;;;;;;12.90;8.10;;;11.20;99.90;;;;;;5026605;28;20504;-71
2021/10/25 13:49:48;;;;;;;18.20;9.30;;;11.30;99.90;;;;;;5028464;28;20319;-72
2021/10/25 13:52:15;;;;;;;15.37;8.77;;;11.30;99.90;;;;;;5031563;28;20726;-71
2021/10/25 13:54:41;;;;;;;14.77;9.50;;;11.30;99.90;;;;;;5019800;28;20458;-71
2021/10/25 13:57:08;;;;;;;20.23;9.93;;;11.20;99.90;;;;;;5030022;28;20456;-72
2021/10/25 13:59:38;;;;;;;11.97;9.73;;;11.20;99.90;;;;;;5008953;28;20514;-71
2021/10/25 14:02:08;;;;;;;14.23;8.97;;;11.30;99.90;;;;;;5003273;28;20470;-71
2021/10/25 14:04:39;;;;;;;11.47;8.63;;;11.30;99.90;;;;;;5012700;28;20461;-73
2021/10/25 14:07:08;;;;;;;11.97;8.93;;;11.30;99.90;;;;;;5012531;28;20568;-71
2021/10/25 14:09:36;;;;;;;14.90;9.60;;;11.30;99.90;;;;;;4995553;28;20467;-72
2021/10/25 14:12:03;;;;;;;13.70;10.17;;;11.30;99.90;;;;;;4996393;28;20903;-73
2021/10/25 14:14:30;;;;;;;16.50;11.10;;;11.30;99.90;;;;;;5018111;28;20558;-70
2021/10/25 14:16:55;;;;;;;25.47;19.33;;;11.30;99.90;;;;;;5014658;28;20799;-71
2021/10/25 14:19:28;;;;;;;25.30;17.47;;;11.30;99.90;;;;;;5012588;28;20473;-71
2021/10/25 14:21:55;;;;;;;31.43;19.80;;;11.40;99.90;;;;;;5003808;28;20238;-71
2021/10/25 14:24:22;;;;;;;17.43;13.40;;;11.40;99.90;;;;;;5006470;28;20505;-70
2021/10/25 14:26:50;;;;;;;14.90;11.50;;;11.40;99.90;;;;;;5028025;28;20462;-69
2021/10/25 14:29:16;;;;;;;14.53;11.33;;;11.50;99.90;;;;;;4996785;28;20513;-72
2021/10/25 14:31:45;;;;;;;17.53;12.17;;;11.40;99.90;;;;;;5028094;28;20459;-72
2021/10/25 14:34:12;;;;;;;14.07;11.23;;;11.40;99.90;;;;;;5013021;28;20223;-71
2021/10/25 14:36:39;;;;;;;19.33;13.13;;;11.50;99.90;;;;;;5036465;28;20942;-71
2021/10/25 14:41:56;;;;;;;17.47;11.87;;;11.50;99.90;;;;;;5040494;28;20465;-71
2021/10/25 14:57:13;;;;;;;14.30;10.47;;;11.70;99.90;;;;;;5017804;28;20520;-71
2021/10/25 14:59:39;;;;;;;14.50;9.50;;;11.70;99.90;;;;;;5030224;28;20482;-69
2021/10/25 15:02:04;;;;;;;15.13;10.47;;;11.70;99.90;;;;;;5032404;28;20986;-71
2021/10/25 15:04:30;;;;;;;12.77;10.43;;;11.70;99.90;;;;;;5018902;28;20521;-71
2021/10/25 15:06:57;;;;;;;13.17;9.67;;;11.70;99.90;;;;;;5020949;28;20249;-72
2021/10/25 15:09:23;;;;;;;10.80;8.70;;;11.70;99.90;;;;;;5012011;28;20596;-71